createdAt,value
2019-01-27T00:01:03.263Z,4.97
2019-01-27T00:06:07.082Z,4.60
2019-01-27T00:11:10.823Z,4.30
2019-01-27T00:16:14.648Z,4.37
2019-01-27T00:21:18.295Z,3.97
2019-01-27T00:26:22.098Z,4.47
2019-01-27T00:31:25.739Z,4.20
2019-01-27T00:36:29.486Z,4.27
2019-01-27T00:41:33.239Z,4.30
2019-01-27T00:46:36.996Z,5.03
2019-01-27T00:51:40.676Z,3.70
2019-01-27T00:56:44.419Z,3.50
2019-01-27T01:01:48.151Z,3.73
2019-01-27T01:06:51.900Z,4.40
2019-01-27T01:11:55.682Z,4.27
2019-01-27T01:16:59.402Z,4.20
2019-01-27T01:22:03.053Z,4.37
2019-01-27T01:27:07.143Z,6.03
2019-01-27T01:32:10.807Z,5.33
2019-01-27T01:37:14.461Z,4.40
2019-01-27T01:42:18.108Z,4.50
2019-01-27T01:47:21.871Z,5.23
2019-01-27T01:52:25.554Z,4.73
2019-01-27T01:57:29.226Z,4.83
2019-01-27T02:02:32.963Z,6.87
2019-01-27T02:07:36.703Z,5.77
2019-01-27T02:12:40.434Z,5.63
2019-01-27T02:17:44.086Z,6.80
2019-01-27T02:22:47.839Z,6.47
2019-01-27T02:27:51.506Z,5.90
2019-01-27T02:32:55.340Z,6.90
2019-01-27T02:37:59.171Z,6.03
2019-01-27T02:43:02.814Z,6.27
2019-01-27T02:48:06.534Z,6.40
2019-01-27T02:53:10.279Z,6.97
2019-01-27T02:58:14.010Z,6.30
2019-01-27T03:03:18.019Z,6.20
2019-01-27T03:08:21.804Z,6.10
2019-01-27T03:13:25.541Z,6.67
2019-01-27T03:18:29.287Z,6.43
2019-01-27T03:23:32.956Z,5.80
2019-01-27T03:28:36.684Z,5.50
2019-01-27T03:33:40.353Z,5.90
2019-01-27T03:38:44.009Z,6.13
2019-01-27T03:43:47.659Z,6.17
2019-01-27T03:48:51.376Z,6.43
2019-01-27T03:53:55.138Z,6.00
2019-01-27T03:58:58.855Z,6.23
2019-01-27T04:04:02.697Z,6.00
2019-01-27T04:09:10.480Z,6.13
2019-01-27T04:14:14.122Z,6.50
2019-01-27T04:19:17.860Z,6.83
2019-01-27T04:24:21.572Z,5.77
2019-01-27T04:29:25.340Z,5.27
2019-01-27T04:34:29.111Z,4.43
2019-01-27T04:39:32.762Z,4.43
2019-01-27T04:44:36.398Z,3.87
2019-01-27T04:49:40.128Z,3.60
2019-01-27T04:54:43.874Z,3.50
2019-01-27T04:59:47.596Z,3.40
2019-01-27T05:04:51.315Z,2.77
2019-01-27T05:09:55.226Z,2.10
2019-01-27T05:14:58.871Z,2.23
2019-01-27T05:20:02.539Z,2.30
2019-01-27T05:25:07.104Z,2.27
2019-01-27T05:30:12.904Z,2.13
2019-01-27T05:35:16.673Z,2.03
2019-01-27T05:40:20.330Z,2.30
2019-01-27T05:45:24.041Z,2.10
2019-01-27T05:50:27.747Z,3.00
2019-01-27T05:55:31.370Z,3.10
2019-01-27T06:00:38.685Z,3.07
2019-01-27T06:05:42.338Z,2.50
2019-01-27T06:10:45.989Z,3.10
2019-01-27T06:15:49.665Z,2.67
2019-01-27T06:20:53.391Z,3.67
2019-01-27T06:25:57.019Z,5.00
2019-01-27T06:31:01.047Z,2.90
2019-01-27T06:36:04.792Z,3.17
2019-01-27T06:41:08.430Z,2.73
2019-01-27T06:46:12.163Z,2.70
2019-01-27T06:51:15.897Z,2.43
2019-01-27T06:56:19.639Z,2.07
2019-01-27T07:01:45.995Z,2.30
2019-01-27T07:06:57.396Z,2.30
2019-01-27T07:12:20.179Z,2.13
2019-01-27T07:17:58.338Z,1.90
2019-01-27T07:23:21.663Z,2.20
2019-01-27T07:28:43.109Z,2.20
2019-01-27T07:34:10.915Z,2.00
2019-01-27T07:39:33.868Z,2.43
2019-01-27T07:44:43.427Z,2.40
2019-01-27T07:50:15.329Z,2.20
2019-01-27T07:55:37.110Z,2.47
2019-01-27T08:00:54.908Z,2.60
2019-01-27T08:06:10.882Z,2.47
2019-01-27T08:11:40.093Z,2.57
2019-01-27T08:17:03.567Z,2.17
2019-01-27T08:22:29.235Z,2.23
2019-01-27T08:27:50.728Z,2.20
2019-01-27T08:33:16.614Z,2.00
2019-01-27T08:38:29.662Z,2.10
2019-01-27T08:43:51.513Z,1.90
2019-01-27T08:48:55.186Z,1.50
2019-01-27T08:53:58.923Z,1.30
2019-01-27T08:59:02.648Z,1.47
2019-01-27T09:04:14.987Z,1.60
2019-01-27T09:09:37.759Z,1.67
2019-01-27T09:15:03.391Z,1.53
2019-01-27T09:20:17.596Z,1.50
2019-01-27T09:25:32.936Z,1.33
2019-01-27T09:30:59.191Z,1.20
2019-01-27T09:36:16.108Z,1.52
2019-01-27T09:41:45.642Z,1.00
2019-01-27T09:47:17.923Z,1.40
2019-01-27T09:52:40.032Z,1.37
2019-01-27T09:58:18.651Z,1.50
2019-01-27T10:03:44.652Z,1.60
2019-01-27T10:09:10.932Z,1.20
2019-01-27T10:14:33.067Z,1.30
2019-01-27T10:19:59.287Z,1.00
2019-01-27T10:25:22.659Z,0.62
2019-01-27T10:30:48.932Z,0.73
2019-01-27T10:36:11.380Z,0.70
2019-01-27T10:41:37.879Z,0.83
2019-01-27T10:46:59.905Z,0.80
2019-01-27T10:52:23.426Z,1.50
2019-01-27T10:57:55.639Z,2.05
2019-01-27T11:03:21.674Z,1.10
2019-01-27T11:08:43.723Z,1.00
2019-01-27T11:14:08.221Z,1.20
2019-01-27T11:19:46.574Z,11.40
2019-01-27T11:25:01.978Z,1.10
2019-01-27T11:30:21.878Z,0.77
2019-01-27T11:35:45.181Z,0.95
2019-01-27T11:41:09.697Z,0.68
2019-01-27T11:46:35.774Z,0.70
2019-01-27T11:51:49.674Z,1.53
2019-01-27T11:56:53.921Z,0.60
2019-01-27T12:01:58.369Z,0.85
2019-01-27T12:07:02.632Z,0.75
2019-01-27T12:12:06.894Z,0.40
2019-01-27T12:17:11.367Z,0.47
2019-01-27T12:22:15.683Z,0.30
2019-01-27T12:27:20.038Z,0.45
2019-01-27T12:32:24.255Z,0.50
2019-01-27T12:37:28.468Z,1.07
2019-01-27T12:42:32.720Z,0.60
2019-01-27T12:47:37.049Z,0.53
2019-01-27T12:55:20.270Z,0.77
2019-01-27T13:00:29.571Z,1.47
2019-01-27T13:05:33.932Z,0.85
2019-01-27T13:10:38.153Z,0.80
2019-01-27T13:15:42.364Z,0.75
2019-01-27T13:20:46.617Z,0.78
2019-01-27T13:25:50.900Z,0.83
2019-01-27T13:30:57.353Z,0.60
2019-01-27T13:36:01.687Z,0.70
2019-01-27T13:41:05.947Z,2.27
2019-01-27T13:46:11.817Z,1.02
2019-01-27T13:51:16.068Z,1.65
2019-01-27T13:56:20.351Z,0.50
2019-01-27T14:01:29.471Z,1.50
2019-01-27T14:06:33.792Z,0.47
2019-01-27T14:11:38.075Z,1.10
2019-01-27T14:16:42.308Z,0.93
2019-01-27T14:21:46.563Z,0.60
2019-01-27T14:26:50.853Z,1.50
2019-01-27T14:31:55.088Z,1.63
2019-01-27T14:36:59.272Z,0.90
2019-01-27T14:42:03.603Z,0.77
2019-01-27T14:47:07.876Z,0.93
2019-01-27T14:52:12.132Z,1.20
2019-01-27T14:57:16.614Z,1.17
2019-01-27T15:02:20.939Z,1.17
2019-01-27T15:07:25.180Z,1.07
2019-01-27T15:12:29.404Z,0.80
2019-01-27T15:17:33.598Z,1.00
2019-01-27T15:22:37.830Z,0.90
2019-01-27T15:27:42.020Z,1.20
2019-01-27T15:32:46.383Z,0.98
2019-01-27T15:37:50.590Z,0.80
2019-01-27T15:42:54.871Z,0.80
2019-01-27T15:47:59.094Z,0.83
2019-01-27T15:53:03.460Z,1.73
2019-01-27T15:58:08.062Z,0.70
2019-01-27T16:03:12.369Z,2.23
2019-01-27T16:08:16.734Z,1.20
2019-01-27T16:13:21.168Z,1.57
2019-01-27T16:18:25.413Z,3.07
2019-01-27T16:23:41.877Z,1.80
2019-01-27T16:28:46.147Z,1.23
2019-01-27T16:33:58.685Z,2.17
2019-01-27T16:39:02.953Z,2.13
2019-01-27T16:44:07.775Z,2.33
2019-01-27T16:49:12.074Z,1.30
2019-01-27T16:54:16.320Z,2.77
2019-01-27T16:59:20.766Z,1.03
2019-01-27T17:04:25.057Z,1.50
2019-01-27T17:09:29.664Z,1.30
2019-01-27T17:14:33.960Z,2.40
2019-01-27T17:19:38.272Z,1.60
2019-01-27T17:24:42.553Z,2.37
2019-01-27T17:29:46.767Z,14.97
2019-01-27T17:34:51.048Z,1.70
2019-01-27T17:39:55.247Z,1.30
2019-01-27T17:44:59.562Z,2.40
2019-01-27T17:50:04.029Z,1.37
2019-01-27T17:55:10.121Z,2.27
2019-01-27T18:00:36.344Z,2.70
2019-01-27T18:06:02.551Z,3.40
2019-01-27T18:11:18.358Z,1.93
2019-01-27T18:16:22.678Z,3.00
2019-01-27T18:21:26.956Z,4.07
2019-01-27T18:26:31.312Z,3.17
2019-01-27T18:31:35.663Z,2.20
2019-01-27T18:36:40.031Z,2.20
2019-01-27T18:41:44.379Z,3.20
2019-01-27T18:46:48.749Z,2.70
2019-01-27T18:51:53.034Z,2.90
2019-01-27T18:57:22.246Z,2.27
2019-01-27T19:02:33.780Z,2.77
2019-01-27T19:07:57.788Z,3.07
2019-01-27T19:13:23.887Z,3.13
2019-01-27T19:18:34.946Z,4.80
2019-01-27T19:23:56.884Z,3.97
2019-01-27T19:29:20.163Z,2.83
2019-01-27T19:35:01.680Z,2.40
2019-01-27T19:40:38.809Z,2.50
2019-01-27T19:46:05.295Z,3.33
2019-01-27T19:51:19.315Z,5.43
2019-01-27T19:56:54.754Z,5.23
2019-01-27T20:02:11.728Z,5.20
2019-01-27T20:07:29.434Z,5.60
2019-01-27T20:12:58.779Z,5.53
2019-01-27T20:18:22.112Z,7.07
2019-01-27T20:23:57.410Z,7.87
2019-01-27T20:29:19.017Z,10.13
2019-01-27T20:34:35.458Z,9.80
2019-01-27T20:39:48.527Z,12.87
2019-01-27T20:45:02.375Z,8.90
2019-01-27T20:50:36.498Z,11.57
2019-01-27T20:55:59.896Z,10.83
2019-01-27T21:01:29.372Z,13.87
2019-01-27T21:06:58.681Z,5.47
2019-01-27T21:12:19.156Z,7.47
2019-01-27T21:17:39.662Z,10.37
2019-01-27T21:22:43.947Z,8.97
2019-01-27T21:27:48.184Z,10.87
2019-01-27T21:32:55.732Z,6.97
2019-01-27T21:37:58.465Z,7.90
2019-01-27T21:43:02.731Z,10.83
2019-01-27T21:48:06.997Z,6.77
2019-01-27T21:53:11.252Z,11.37
2019-01-27T21:58:15.630Z,9.50
2019-01-27T22:03:20.140Z,10.57
2019-01-27T22:08:24.366Z,8.57
2019-01-27T22:13:28.569Z,6.30
2019-01-27T22:18:32.772Z,11.37
2019-01-27T22:23:36.990Z,13.80
2019-01-27T22:28:41.321Z,8.60
2019-01-27T22:33:45.583Z,9.23
2019-01-27T22:38:51.615Z,9.30
2019-01-27T22:43:55.896Z,10.27
2019-01-27T22:49:00.104Z,8.50
2019-01-27T22:54:05.497Z,10.73
2019-01-27T22:59:09.691Z,9.87
2019-01-27T23:04:13.928Z,8.37
2019-01-27T23:09:20.117Z,12.03
2019-01-27T23:14:24.340Z,8.07
2019-01-27T23:19:28.536Z,8.90
2019-01-27T23:24:32.845Z,8.77
2019-01-27T23:29:37.036Z,6.47
2019-01-27T23:34:41.280Z,8.13
2019-01-27T23:39:45.582Z,7.70
2019-01-27T23:44:49.868Z,12.43
2019-01-27T23:49:54.074Z,8.57
2019-01-27T23:54:58.389Z,9.07
